Time;durP1;ratioP1;P1;durP2;ratioP2;P2;SDS_P1;SDS_P2;PMS_P1;PMS_P2;Temp;Humidity;BMP_temperature;BMP_pressure;BME280_temperature;BME280_humidity;BME280_pressure;Samples;Min_cycle;Max_cycle;Signal;HPM_P1;HPM_P2
2023/12/26 00:00:54;;;;;;;13.77;5.38;;;;;;;;;;5111712;28;20556;-75
2023/12/26 00:03:20;;;;;;;12.98;4.85;;;;;;;;;;5112026;28;20443;-76
2023/12/26 00:05:47;;;;;;;11.82;4.80;;;;;;;;;;5112673;28;20047;-75
2023/12/26 00:08:13;;;;;;;13.50;4.78;;;;;;;;;;5111929;28;20028;-75
2023/12/26 00:10:39;;;;;;;8.25;4.05;;;;;;;;;;5111630;28;20028;-74
2023/12/26 00:13:05;;;;;;;10.27;3.85;;;;;;;;;;5111809;28;20053;-75
2023/12/26 00:15:31;;;;;;;11.65;4.63;;;;;;;;;;5112254;28;20019;-74
2023/12/26 00:17:57;;;;;;;9.02;4.28;;;;;;;;;;5111906;28;20485;-74
2023/12/26 00:20:23;;;;;;;11.23;4.32;;;;;;;;;;5111762;28;20027;-75
2023/12/26 00:22:49;;;;;;;12.43;4.50;;;;;;;;;;5111510;28;20031;-75
2023/12/26 00:25:15;;;;;;;13.40;4.45;;;;;;;;;;5111851;28;20028;-76
2023/12/26 00:27:42;;;;;;;12.00;4.50;;;;;;;;;;5112015;28;20016;-76
2023/12/26 00:30:08;;;;;;;10.90;4.07;;;;;;;;;;5111829;28;20103;-76
2023/12/26 00:32:35;;;;;;;13.63;4.10;;;;;;;;;;5111440;28;20024;-76
2023/12/26 00:35:01;;;;;;;11.85;3.33;;;;;;;;;;5110697;28;20030;-75
2023/12/26 00:37:27;;;;;;;8.10;3.20;;;;;;;;;;5112043;28;20036;-75
2023/12/26 00:39:53;;;;;;;8.95;2.75;;;;;;;;;;5111668;28;20024;-75
2023/12/26 00:42:19;;;;;;;9.20;2.90;;;;;;;;;;5111491;28;20099;-74
2023/12/26 00:44:45;;;;;;;9.48;2.58;;;;;;;;;;5113326;28;20152;-76
2023/12/26 00:47:11;;;;;;;7.38;1.98;;;;;;;;;;5116552;28;20404;-74
2023/12/26 00:49:37;;;;;;;8.73;2.10;;;;;;;;;;5116906;28;20032;-75
2023/12/26 00:52:04;;;;;;;8.20;2.25;;;;;;;;;;5113342;28;20103;-76
2023/12/26 00:54:30;;;;;;;6.22;1.88;;;;;;;;;;5112288;28;20034;-75
2023/12/26 00:56:56;;;;;;;7.50;2.08;;;;;;;;;;5111957;28;20106;-75
2023/12/26 00:59:22;;;;;;;8.52;2.10;;;;;;;;;;5112238;28;20028;-76
2023/12/26 01:01:48;;;;;;;11.50;2.15;;;;;;;;;;5106997;28;20055;-74
2023/12/26 01:04:14;;;;;;;8.70;1.63;;;;;;;;;;5102506;28;20023;-75
2023/12/26 01:06:40;;;;;;;7.20;1.55;;;;;;;;;;5094583;28;20020;-76
2023/12/26 01:09:06;;;;;;;9.18;1.67;;;;;;;;;;5091026;28;20098;-75
2023/12/26 01:11:33;;;;;;;8.75;1.67;;;;;;;;;;5090739;28;20020;-76
2023/12/26 01:13:59;;;;;;;7.20;1.52;;;;;;;;;;5094410;28;20119;-75
2023/12/26 01:16:27;;;;;;;4.70;1.40;;;;;;;;;;5094550;28;20107;-74
2023/12/26 01:18:53;;;;;;;5.80;1.35;;;;;;;;;;5094452;28;20372;-75
2023/12/26 01:21:20;;;;;;;7.25;1.17;;;;;;;;;;5094618;28;20510;-75
2023/12/26 01:23:46;;;;;;;7.25;1.45;;;;;;;;;;5094309;28;20035;-75
2023/12/26 01:26:12;;;;;;;5.55;1.60;;;;;;;;;;5094491;28;20107;-76
2023/12/26 01:28:38;;;;;;;7.68;1.70;;;;;;;;;;5094546;28;20024;-75
2023/12/26 01:31:04;;;;;;;6.90;1.98;;;;;;;;;;5094306;28;20038;-75
2023/12/26 01:33:30;;;;;;;7.75;1.88;;;;;;;;;;5094236;28;20430;-75
2023/12/26 01:35:56;;;;;;;7.35;1.80;;;;;;;;;;5094294;28;20024;-75
2023/12/26 01:38:22;;;;;;;7.63;2.10;;;;;;;;;;5094454;28;20510;-76
2023/12/26 01:40:48;;;;;;;7.22;2.30;;;;;;;;;;5094121;28;20024;-75
2023/12/26 01:43:14;;;;;;;5.75;1.80;;;;;;;;;;5094083;28;20031;-75
2023/12/26 01:45:40;;;;;;;9.68;1.90;;;;;;;;;;5093990;28;20091;-75
2023/12/26 01:48:07;;;;;;;6.95;1.60;;;;;;;;;;5094446;28;20043;-76
2023/12/26 01:50:33;;;;;;;5.85;1.80;;;;;;;;;;5093926;28;20502;-75
2023/12/26 01:52:59;;;;;;;4.90;1.95;;;;;;;;;;5094156;28;20035;-76
2023/12/26 01:55:26;;;;;;;7.93;1.67;;;;;;;;;;5094016;28;20024;-75
2023/12/26 01:57:53;;;;;;;4.22;2.30;;;;;;;;;;5093790;28;20276;-74
2023/12/26 02:00:20;;;;;;;9.20;2.15;;;;;;;;;;5093668;28;20036;-75
2023/12/26 02:02:46;;;;;;;7.50;2.38;;;;;;;;;;5093404;28;20028;-75
2023/12/26 02:05:12;;;;;;;8.02;2.03;;;;;;;;;;5093662;28;20063;-76
2023/12/26 02:07:38;;;;;;;5.00;1.90;;;;;;;;;;5093647;28;20024;-76
2023/12/26 02:10:06;;;;;;;5.78;2.17;;;;;;;;;;5093919;28;20032;-76
2023/12/26 02:12:32;;;;;;;5.00;1.95;;;;;;;;;;5093741;28;20429;-77
2023/12/26 02:14:58;;;;;;;5.10;1.95;;;;;;;;;;5093779;28;20471;-76
2023/12/26 02:17:25;;;;;;;5.65;1.92;;;;;;;;;;5093498;28;20028;-76
2023/12/26 02:19:51;;;;;;;6.03;2.08;;;;;;;;;;5093380;28;20031;-75
2023/12/26 02:22:18;;;;;;;4.20;1.83;;;;;;;;;;5093208;28;20095;-74
2023/12/26 02:24:44;;;;;;;5.85;1.95;;;;;;;;;;5095476;28;20076;-75
2023/12/26 02:27:28;;;;;;;5.90;1.85;;;;;;;;;;5099209;28;20475;-74
2023/12/26 02:29:54;;;;;;;4.88;2.13;;;;;;;;;;5098041;28;20528;-75
2023/12/26 02:32:22;;;;;;;6.38;1.83;;;;;;;;;;5093595;28;20028;-76
2023/12/26 02:34:50;;;;;;;8.73;1.65;;;;;;;;;;5093035;28;20028;-75
2023/12/26 02:37:16;;;;;;;4.97;1.60;;;;;;;;;;5093018;28;20027;-75
2023/12/26 02:39:44;;;;;;;3.70;1.73;;;;;;;;;;5093444;28;20533;-75
2023/12/26 02:42:31;;;;;;;2.38;1.60;;;;;;;;;;5102055;28;20024;-74
2023/12/26 02:44:58;;;;;;;5.55;1.55;;;;;;;;;;5110939;28;20028;-74
2023/12/26 02:47:24;;;;;;;4.07;1.63;;;;;;;;;;5098856;28;20428;-75
2023/12/26 02:49:50;;;;;;;4.63;1.60;;;;;;;;;;5092863;28;20040;-75
2023/12/26 02:52:17;;;;;;;7.45;1.70;;;;;;;;;;5092117;28;20028;-75
2023/12/26 02:54:43;;;;;;;5.55;1.60;;;;;;;;;;5092460;28;20039;-75
2023/12/26 02:57:09;;;;;;;6.53;1.60;;;;;;;;;;5103983;28;20023;-75
2023/12/26 02:59:35;;;;;;;3.88;1.63;;;;;;;;;;5112641;28;20036;-75
2023/12/26 03:02:02;;;;;;;4.60;1.23;;;;;;;;;;5113289;28;20023;-75
2023/12/26 03:04:28;;;;;;;5.15;1.40;;;;;;;;;;5110817;28;20016;-75
2023/12/26 03:06:54;;;;;;;3.53;1.40;;;;;;;;;;5103838;27;20045;-75
2023/12/26 03:09:20;;;;;;;1.90;1.10;;;;;;;;;;5092359;28;20032;-74
2023/12/26 03:11:46;;;;;;;4.50;1.27;;;;;;;;;;5091705;28;20031;-75
2023/12/26 03:14:13;;;;;;;8.75;1.58;;;;;;;;;;5092257;28;20024;-75
2023/12/26 03:16:39;;;;;;;4.88;1.40;;;;;;;;;;5092368;28;20055;-75
2023/12/26 03:19:05;;;;;;;4.70;1.63;;;;;;;;;;5092255;28;20030;-75
2023/12/26 03:21:31;;;;;;;7.00;1.45;;;;;;;;;;5091864;28;20080;-75
2023/12/26 03:23:57;;;;;;;5.15;1.25;;;;;;;;;;5092277;28;20030;-81
2023/12/26 03:26:24;;;;;;;4.15;1.63;;;;;;;;;;5092968;28;20522;-77
2023/12/26 03:28:50;;;;;;;5.03;1.48;;;;;;;;;;5092636;28;20460;-77
2023/12/26 03:31:16;;;;;;;3.33;1.10;;;;;;;;;;5092200;28;20020;-76
2023/12/26 03:33:42;;;;;;;6.55;1.20;;;;;;;;;;5092769;28;20027;-74
2023/12/26 03:36:08;;;;;;;3.80;1.10;;;;;;;;;;5092203;28;20026;-75
2023/12/26 03:38:36;;;;;;;7.00;1.25;;;;;;;;;;5092889;28;20082;-77
2023/12/26 03:41:02;;;;;;;5.75;1.25;;;;;;;;;;5091755;28;20042;-75
2023/12/26 03:43:28;;;;;;;2.47;0.90;;;;;;;;;;5092598;28;20028;-76
2023/12/26 03:45:54;;;;;;;5.43;1.25;;;;;;;;;;5093441;28;20306;-76
2023/12/26 03:48:20;;;;;;;5.80;0.95;;;;;;;;;;5093294;28;20035;-76
2023/12/26 03:50:46;;;;;;;4.50;1.10;;;;;;;;;;5092462;28;20048;-76
2023/12/26 03:53:12;;;;;;;8.00;1.60;;;;;;;;;;5093687;28;20422;-76
2023/12/26 03:55:40;;;;;;;3.00;1.00;;;;;;;;;;5092314;28;20024;-76
2023/12/26 03:58:06;;;;;;;8.63;1.65;;;;;;;;;;5091822;28;20067;-76
2023/12/26 04:00:32;;;;;;;8.63;1.33;;;;;;;;;;5091742;28;20024;-76
2023/12/26 04:02:58;;;;;;;9.27;1.55;;;;;;;;;;5093052;28;20028;-74
2023/12/26 04:05:24;;;;;;;6.50;1.50;;;;;;;;;;5094809;28;20067;-74
2023/12/26 04:07:50;;;;;;;9.10;1.40;;;;;;;;;;5097129;28;20031;-75
2023/12/26 04:10:16;;;;;;;5.85;1.38;;;;;;;;;;5096350;28;20098;-76
2023/12/26 04:12:42;;;;;;;9.10;1.65;;;;;;;;;;5091786;28;20039;-77
2023/12/26 04:15:09;;;;;;;5.85;1.42;;;;;;;;;;5092978;28;20055;-75
2023/12/26 04:17:35;;;;;;;7.68;1.17;;;;;;;;;;5092887;28;20036;-77
2023/12/26 04:20:02;;;;;;;8.32;1.50;;;;;;;;;;5092513;28;20420;-77
2023/12/26 04:22:28;;;;;;;13.07;1.70;;;;;;;;;;5092278;28;20020;-76
2023/12/26 04:24:54;;;;;;;9.93;1.55;;;;;;;;;;5092609;28;20095;-78
2023/12/26 04:27:20;;;;;;;10.80;1.90;;;;;;;;;;5092704;28;20028;-76
2023/12/26 04:29:46;;;;;;;14.32;2.20;;;;;;;;;;5092342;28;20034;-76
2023/12/26 04:32:12;;;;;;;9.40;1.60;;;;;;;;;;5091743;28;20437;-76
2023/12/26 04:34:38;;;;;;;13.63;1.70;;;;;;;;;;5090731;28;20028;-76
2023/12/26 04:37:04;;;;;;;12.88;1.80;;;;;;;;;;5091420;28;20024;-75
2023/12/26 04:39:31;;;;;;;11.85;1.75;;;;;;;;;;5091243;28;20028;-75
2023/12/26 04:41:57;;;;;;;12.65;2.08;;;;;;;;;;5091281;28;20042;-76
2023/12/26 04:44:26;;;;;;;27.13;3.30;;;;;;;;;;5092138;28;20024;-78
2023/12/26 04:46:52;;;;;;;19.80;3.05;;;;;;;;;;5092978;28;20036;-76
2023/12/26 04:49:18;;;;;;;21.17;3.08;;;;;;;;;;5097759;28;20028;-76
2023/12/26 04:51:44;;;;;;;20.38;2.67;;;;;;;;;;5096460;28;20036;-75
2023/12/26 04:54:10;;;;;;;25.42;3.65;;;;;;;;;;5095970;28;20107;-75
2023/12/26 04:56:39;;;;;;;28.85;3.72;;;;;;;;;;5095472;28;20048;-75
2023/12/26 04:59:05;;;;;;;24.33;3.58;;;;;;;;;;5094979;28;20082;-74
2023/12/26 05:01:31;;;;;;;22.02;3.13;;;;;;;;;;5095045;28;20058;-74
2023/12/26 05:03:57;;;;;;;27.33;3.90;;;;;;;;;;5095431;28;20024;-75
2023/12/26 05:06:23;;;;;;;30.00;2.88;;;;;;;;;;5098609;28;20121;-75
2023/12/26 05:08:50;;;;;;;34.92;4.97;;;;;;;;;;5098623;28;20058;-74
2023/12/26 05:11:22;;;;;;;22.23;3.58;;;;;;;;;;5094788;28;20020;-74
2023/12/26 05:13:48;;;;;;;36.55;3.72;;;;;;;;;;5094825;28;20016;-74
2023/12/26 05:16:14;;;;;;;25.77;4.00;;;;;;;;;;5100250;28;20024;-75
2023/12/26 05:18:41;;;;;;;23.50;3.85;;;;;;;;;;5095719;28;20051;-75
2023/12/26 05:21:07;;;;;;;34.10;4.40;;;;;;;;;;5094797;28;20031;-77
2023/12/26 05:23:33;;;;;;;38.97;5.15;;;;;;;;;;5095071;28;20085;-74
2023/12/26 05:25:59;;;;;;;37.53;5.10;;;;;;;;;;5094356;28;20020;-76
2023/12/26 05:28:25;;;;;;;31.73;5.07;;;;;;;;;;5094350;28;20028;-74
2023/12/26 05:30:51;;;;;;;36.08;4.47;;;;;;;;;;5095008;28;20426;-76
2023/12/26 05:33:18;;;;;;;48.38;4.75;;;;;;;;;;5095069;28;20498;-76
2023/12/26 05:35:44;;;;;;;37.63;5.55;;;;;;;;;;5095304;28;20027;-76
2023/12/26 05:38:10;;;;;;;48.50;4.40;;;;;;;;;;5094564;28;20106;-80
2023/12/26 05:40:38;;;;;;;33.10;4.03;;;;;;;;;;5094888;28;20104;-76
2023/12/26 05:43:04;;;;;;;28.85;3.58;;;;;;;;;;5095157;28;20020;-76
2023/12/26 05:45:32;;;;;;;38.97;5.07;;;;;;;;;;5100498;28;20020;-76
2023/12/26 05:47:58;;;;;;;28.67;4.10;;;;;;;;;;5100735;28;20023;-77
2023/12/26 05:50:24;;;;;;;53.30;4.50;;;;;;;;;;5101326;28;20028;-76
2023/12/26 05:52:50;;;;;;;34.67;4.55;;;;;;;;;;5094795;28;20032;-76
2023/12/26 05:55:16;;;;;;;32.92;4.10;;;;;;;;;;5108140;28;20103;-75
2023/12/26 05:57:42;;;;;;;42.92;4.70;;;;;;;;;;5098026;28;20423;-76
2023/12/26 06:00:09;;;;;;;37.40;4.13;;;;;;;;;;5096431;28;20039;-75
2023/12/26 06:02:35;;;;;;;28.48;4.13;;;;;;;;;;5099390;28;20494;-78
2023/12/26 06:05:01;;;;;;;36.67;4.88;;;;;;;;;;5111779;28;20028;-76
2023/12/26 06:07:27;;;;;;;34.17;4.72;;;;;;;;;;5097232;28;20031;-77
2023/12/26 06:09:53;;;;;;;28.67;3.90;;;;;;;;;;5106295;28;20023;-75
2023/12/26 06:12:19;;;;;;;37.95;4.18;;;;;;;;;;5101650;28;20018;-75
2023/12/26 06:14:45;;;;;;;31.48;3.80;;;;;;;;;;5111347;28;20106;-76
2023/12/26 06:17:11;;;;;;;33.20;4.50;;;;;;;;;;5102809;28;20039;-76
2023/12/26 06:19:37;;;;;;;27.33;3.92;;;;;;;;;;5102684;28;20027;-75
2023/12/26 06:22:03;;;;;;;28.83;4.15;;;;;;;;;;5103830;28;20028;-75
2023/12/26 06:24:29;;;;;;;33.67;4.10;;;;;;;;;;5103098;28;20121;-75
2023/12/26 06:26:55;;;;;;;35.92;4.65;;;;;;;;;;5112159;28;20027;-75
2023/12/26 06:29:23;;;;;;;37.40;4.63;;;;;;;;;;5114301;28;20126;-76
2023/12/26 06:31:49;;;;;;;46.63;6.30;;;;;;;;;;5098318;28;20020;-75
2023/12/26 06:34:15;;;;;;;37.03;5.15;;;;;;;;;;5099431;28;20047;-77
2023/12/26 06:36:41;;;;;;;37.38;4.20;;;;;;;;;;5106340;28;20028;-76
2023/12/26 06:39:07;;;;;;;28.77;5.10;;;;;;;;;;5113959;28;20402;-76
2023/12/26 06:41:33;;;;;;;34.53;4.95;;;;;;;;;;5107500;28;20030;-76
2023/12/26 06:43:59;;;;;;;34.08;4.28;;;;;;;;;;5104378;28;20069;-75
2023/12/26 06:46:26;;;;;;;36.88;5.00;;;;;;;;;;5113575;28;20016;-76
2023/12/26 06:48:52;;;;;;;39.28;5.05;;;;;;;;;;5102304;28;20020;-76
2023/12/26 06:51:18;;;;;;;36.65;5.43;;;;;;;;;;5112514;28;20027;-76
2023/12/26 06:53:44;;;;;;;45.10;5.82;;;;;;;;;;5107585;28;20467;-75
2023/12/26 06:56:10;;;;;;;47.33;5.25;;;;;;;;;;5105332;28;20036;-76
2023/12/26 06:58:36;;;;;;;45.60;5.85;;;;;;;;;;5108733;28;20050;-76
2023/12/26 07:01:03;;;;;;;32.50;4.78;;;;;;;;;;5099177;28;20028;-76
2023/12/26 07:03:29;;;;;;;41.38;4.65;;;;;;;;;;5098329;28;20024;-76
2023/12/26 07:05:55;;;;;;;40.83;4.93;;;;;;;;;;5111812;28;20412;-76
2023/12/26 07:08:21;;;;;;;36.13;4.85;;;;;;;;;;5110424;28;20031;-76
2023/12/26 07:10:47;;;;;;;44.67;4.82;;;;;;;;;;5109643;28;20469;-75
2023/12/26 07:13:13;;;;;;;43.03;5.10;;;;;;;;;;5115119;28;20038;-76
2023/12/26 07:15:39;;;;;;;42.35;5.53;;;;;;;;;;5118428;28;20020;-77
2023/12/26 07:18:05;;;;;;;42.47;7.88;;;;;;;;;;5113716;28;20038;-76
2023/12/26 07:20:31;;;;;;;41.25;4.97;;;;;;;;;;5107404;28;20123;-76
2023/12/26 07:22:58;;;;;;;41.50;4.93;;;;;;;;;;5094533;28;20027;-75
2023/12/26 07:25:24;;;;;;;32.55;5.35;;;;;;;;;;5106351;28;20016;-75
2023/12/26 07:27:50;;;;;;;42.13;4.97;;;;;;;;;;5114659;28;20020;-74
2023/12/26 07:30:16;;;;;;;46.17;4.70;;;;;;;;;;5116316;28;20039;-74
2023/12/26 07:32:42;;;;;;;36.10;4.30;;;;;;;;;;5115283;28;20068;-74
2023/12/26 07:35:08;;;;;;;34.88;4.55;;;;;;;;;;5114841;28;20038;-75
2023/12/26 07:37:34;;;;;;;41.30;4.10;;;;;;;;;;5112600;28;20483;-77
2023/12/26 07:40:00;;;;;;;43.95;5.07;;;;;;;;;;5111566;28;20031;-76
2023/12/26 07:42:26;;;;;;;39.55;4.38;;;;;;;;;;5105389;28;20122;-76
2023/12/26 07:44:52;;;;;;;39.10;4.90;;;;;;;;;;5113066;28;20020;-76
2023/12/26 07:47:18;;;;;;;45.35;5.13;;;;;;;;;;5094201;28;20056;-76
2023/12/26 07:49:44;;;;;;;41.67;4.85;;;;;;;;;;5092252;28;20028;-76
2023/12/26 07:52:10;;;;;;;39.78;5.55;;;;;;;;;;5108382;28;20427;-76
2023/12/26 07:54:36;;;;;;;35.92;4.40;;;;;;;;;;5112393;28;20109;-76
2023/12/26 07:57:02;;;;;;;31.88;4.35;;;;;;;;;;5112377;28;20092;-77
2023/12/26 07:59:28;;;;;;;42.53;4.80;;;;;;;;;;5112606;28;20034;-77
2023/12/26 08:01:54;;;;;;;36.30;4.63;;;;;;;;;;5112111;28;20101;-77
2023/12/26 08:04:20;;;;;;;36.03;4.60;;;;;;;;;;5112552;28;20652;-75
2023/12/26 08:06:47;;;;;;;47.35;4.93;;;;;;;;;;5112490;28;20652;-74
2023/12/26 08:09:13;;;;;;;60.38;6.38;;;;;;;;;;5112198;28;20085;-73
2023/12/26 08:11:39;;;;;;;45.67;5.72;;;;;;;;;;5111369;28;20020;-73
2023/12/26 08:14:05;;;;;;;42.00;6.05;;;;;;;;;;5111618;28;20094;-73
2023/12/26 08:16:31;;;;;;;43.53;5.38;;;;;;;;;;5111921;28;20023;-75
2023/12/26 08:18:58;;;;;;;40.63;5.20;;;;;;;;;;5112726;28;20024;-76
2023/12/26 08:21:24;;;;;;;40.97;6.05;;;;;;;;;;5113013;28;20023;-78
2023/12/26 08:23:51;;;;;;;43.58;5.25;;;;;;;;;;5116074;28;20077;-75
2023/12/26 08:26:17;;;;;;;42.17;5.28;;;;;;;;;;5116014;28;20031;-75
2023/12/26 08:28:43;;;;;;;50.15;5.63;;;;;;;;;;5116373;28;20378;-75
2023/12/26 08:31:09;;;;;;;45.67;5.28;;;;;;;;;;5115457;28;20103;-76
2023/12/26 08:33:37;;;;;;;50.03;5.80;;;;;;;;;;5116152;28;20032;-75
2023/12/26 08:36:03;;;;;;;42.10;5.90;;;;;;;;;;5115574;28;20028;-75
2023/12/26 08:38:29;;;;;;;32.88;4.78;;;;;;;;;;5115500;28;20031;-75
2023/12/26 08:40:55;;;;;;;45.55;5.40;;;;;;;;;;5115244;28;20067;-76
2023/12/26 08:43:22;;;;;;;43.80;4.63;;;;;;;;;;5097919;28;20032;-76
2023/12/26 08:45:48;;;;;;;49.75;5.72;;;;;;;;;;5095243;28;20024;-75
2023/12/26 08:48:14;;;;;;;34.05;4.90;;;;;;;;;;5095400;28;20027;-77
2023/12/26 08:50:40;;;;;;;41.22;5.47;;;;;;;;;;5095039;28;20103;-75
2023/12/26 08:53:07;;;;;;;39.67;5.10;;;;;;;;;;5095247;28;20024;-74
2023/12/26 08:55:33;;;;;;;47.10;5.35;;;;;;;;;;5094343;28;20070;-76
2023/12/26 08:57:59;;;;;;;33.75;4.35;;;;;;;;;;5096600;28;20368;-76
2023/12/26 09:00:25;;;;;;;37.80;5.63;;;;;;;;;;5096951;28;20024;-78
2023/12/26 09:02:51;;;;;;;34.00;5.10;;;;;;;;;;5096860;28;20027;-81
2023/12/26 09:05:17;;;;;;;44.03;5.72;;;;;;;;;;5100784;28;20389;-80
2023/12/26 09:07:43;;;;;;;40.28;5.60;;;;;;;;;;5103037;28;20043;-79
2023/12/26 09:10:10;;;;;;;45.10;5.53;;;;;;;;;;5097525;28;20119;-79
2023/12/26 09:12:36;;;;;;;37.67;5.15;;;;;;;;;;5105734;28;20020;-79
2023/12/26 09:15:03;;;;;;;37.72;5.22;;;;;;;;;;5102463;28;20111;-79
2023/12/26 09:17:30;;;;;;;47.88;6.03;;;;;;;;;;5097591;28;20035;-77
2023/12/26 09:19:56;;;;;;;39.10;4.95;;;;;;;;;;5098582;28;20020;-80
2023/12/26 09:22:22;;;;;;;34.47;4.53;;;;;;;;;;5098266;28;20032;-77
2023/12/26 09:24:48;;;;;;;47.25;5.18;;;;;;;;;;5094527;28;20020;-77
2023/12/26 09:27:14;;;;;;;45.33;5.28;;;;;;;;;;5094560;28;20031;-76
2023/12/26 09:29:40;;;;;;;46.90;10.23;;;;;;;;;;5093371;28;20031;-75
2023/12/26 09:32:09;;;;;;;43.10;5.63;;;;;;;;;;5093988;28;20050;-74
2023/12/26 09:34:35;;;;;;;32.58;4.90;;;;;;;;;;5093588;28;20028;-75
2023/12/26 09:37:02;;;;;;;39.72;5.63;;;;;;;;;;5095106;28;20036;-76
2023/12/26 09:39:28;;;;;;;43.08;5.47;;;;;;;;;;5094601;28;20024;-75
2023/12/26 09:41:56;;;;;;;48.25;6.20;;;;;;;;;;5093995;28;20020;-77
2023/12/26 09:44:22;;;;;;;44.85;6.80;;;;;;;;;;5095452;28;20038;-76
2023/12/26 09:46:51;;;;;;;41.20;7.25;;;;;;;;;;5095960;28;20020;-75
2023/12/26 09:49:17;;;;;;;52.83;8.57;;;;;;;;;;5094653;28;20031;-75
2023/12/26 09:51:46;;;;;;;44.33;10.02;;;;;;;;;;5094301;28;20028;-75
2023/12/26 09:54:16;;;;;;;35.38;5.45;;;;;;;;;;5094225;28;20483;-76
2023/12/26 09:56:45;;;;;;;29.63;4.35;;;;;;;;;;5094072;28;20027;-75
2023/12/26 09:59:12;;;;;;;39.22;5.60;;;;;;;;;;5093459;28;20035;-77
2023/12/26 10:01:38;;;;;;;26.02;4.50;;;;;;;;;;5093676;28;20031;-76
2023/12/26 10:04:06;;;;;;;27.38;4.40;;;;;;;;;;5094165;28;20020;-75
2023/12/26 10:06:33;;;;;;;36.00;5.20;;;;;;;;;;5093457;28;20035;-75
2023/12/26 10:08:59;;;;;;;30.13;3.85;;;;;;;;;;5093563;28;20046;-75
2023/12/26 10:11:27;;;;;;;29.13;4.18;;;;;;;;;;5093377;28;20040;-75
2023/12/26 10:13:53;;;;;;;31.67;4.38;;;;;;;;;;5093477;28;20024;-75
2023/12/26 10:16:22;;;;;;;30.45;5.07;;;;;;;;;;5094575;28;20020;-75
2023/12/26 10:18:50;;;;;;;33.60;4.45;;;;;;;;;;5093490;28;20024;-74
2023/12/26 10:21:17;;;;;;;39.97;5.18;;;;;;;;;;5094602;28;20368;-76
2023/12/26 10:23:43;;;;;;;31.73;4.63;;;;;;;;;;5094798;28;20085;-75
2023/12/26 10:26:09;;;;;;;33.88;4.40;;;;;;;;;;5093412;28;20528;-75
2023/12/26 10:28:39;;;;;;;30.98;3.90;;;;;;;;;;5093601;28;20103;-76
2023/12/26 10:31:15;;;;;;;29.75;3.83;;;;;;;;;;5094356;28;20368;-80
2023/12/26 10:33:42;;;;;;;30.95;3.83;;;;;;;;;;5093461;28;20024;-80
2023/12/26 10:36:10;;;;;;;32.25;4.20;;;;;;;;;;5092781;28;20024;-78
2023/12/26 10:38:37;;;;;;;27.77;4.57;;;;;;;;;;5094672;28;20055;-79
2023/12/26 10:41:07;;;;;;;23.38;3.97;;;;;;;;;;5096699;28;20073;-78
2023/12/26 10:43:33;;;;;;;30.88;4.78;;;;;;;;;;5093971;28;20027;-80
2023/12/26 10:46:00;;;;;;;28.23;3.78;;;;;;;;;;5113994;28;20020;-78
2023/12/26 10:48:33;;;;;;;29.60;4.32;;;;;;;;;;5115024;28;20042;-74
2023/12/26 10:51:02;;;;;;;28.60;3.97;;;;;;;;;;5113528;28;20095;-75
2023/12/26 10:53:32;;;;;;;32.65;4.50;;;;;;;;;;5113048;28;20027;-75
2023/12/26 10:55:59;;;;;;;36.63;5.03;;;;;;;;;;5115325;28;20027;-76
2023/12/26 10:58:29;;;;;;;27.55;3.90;;;;;;;;;;5119658;28;20104;-76
2023/12/26 13:52:18;;;;;;;19.92;3.38;;;;;;;;;;5114360;28;20056;-74
2023/12/26 13:54:44;;;;;;;23.10;3.30;;;;;;;;;;5114347;28;20023;-75
2023/12/26 13:57:10;;;;;;;10.77;2.15;;;;;;;;;;5114525;28;20020;-76
2023/12/26 13:59:36;;;;;;;12.02;2.65;;;;;;;;;;5113694;28;20117;-75
2023/12/26 14:02:02;;;;;;;10.73;2.35;;;;;;;;;;5112196;28;20016;-78
2023/12/26 14:04:28;;;;;;;14.10;2.10;;;;;;;;;;5115367;28;20382;-81
2023/12/26 14:06:54;;;;;;;9.02;2.25;;;;;;;;;;5119379;28;20108;-80
2023/12/26 14:09:20;;;;;;;8.90;1.90;;;;;;;;;;5115183;28;20016;-77
2023/12/26 14:11:46;;;;;;;14.88;2.50;;;;;;;;;;5114051;28;20483;-74
2023/12/26 14:14:12;;;;;;;10.30;1.95;;;;;;;;;;5108765;28;20440;-75
2023/12/26 14:16:37;;;;;;;15.15;1.40;;;;;;;;;;5111093;28;20493;-74
2023/12/26 14:19:03;;;;;;;13.45;2.35;;;;;;;;;;5099568;28;20035;-76
2023/12/26 14:21:29;;;;;;;9.82;2.53;;;;;;;;;;5095972;28;20035;-76
2023/12/26 14:23:55;;;;;;;13.00;2.80;;;;;;;;;;5110069;28;20015;-76
2023/12/26 14:26:21;;;;;;;13.70;2.08;;;;;;;;;;5101969;28;20099;-77
2023/12/26 14:28:47;;;;;;;18.15;3.25;;;;;;;;;;5116602;28;20062;-76
2023/12/26 14:31:13;;;;;;;17.02;3.35;;;;;;;;;;5108876;28;20036;-78
2023/12/26 14:33:39;;;;;;;11.48;2.55;;;;;;;;;;5107926;28;20403;-79
2023/12/26 14:36:07;;;;;;;8.82;2.17;;;;;;;;;;5107813;28;20043;-76
2023/12/26 14:38:33;;;;;;;12.10;2.17;;;;;;;;;;5102072;28;20104;-75
2023/12/26 14:40:59;;;;;;;20.55;2.85;;;;;;;;;;5101751;28;20084;-74
2023/12/26 14:43:25;;;;;;;12.50;2.00;;;;;;;;;;5111575;28;20077;-78
2023/12/26 14:45:51;;;;;;;15.40;3.10;;;;;;;;;;5115946;28;20009;-77
2023/12/26 14:48:17;;;;;;;18.77;2.50;;;;;;;;;;5115284;28;20028;-76
2023/12/26 14:50:43;;;;;;;17.05;3.35;;;;;;;;;;5098289;28;20119;-76
2023/12/26 14:53:09;;;;;;;17.20;2.65;;;;;;;;;;5111012;28;20447;-77
2023/12/26 14:55:35;;;;;;;9.80;2.13;;;;;;;;;;5116883;28;20035;-76
2023/12/26 14:58:00;;;;;;;20.35;2.42;;;;;;;;;;5113679;28;20063;-75
2023/12/26 15:00:26;;;;;;;20.25;3.40;;;;;;;;;;5117668;28;20039;-76
2023/12/26 15:02:54;;;;;;;19.52;2.50;;;;;;;;;;5111923;27;20024;-76
2023/12/26 15:05:20;;;;;;;16.33;2.85;;;;;;;;;;5110116;28;20025;-76
2023/12/26 15:07:46;;;;;;;18.88;2.35;;;;;;;;;;5117186;28;20105;-76
2023/12/26 15:10:12;;;;;;;22.83;3.17;;;;;;;;;;5122009;28;20038;-75
2023/12/26 15:12:38;;;;;;;14.73;2.85;;;;;;;;;;5121235;28;20067;-75
2023/12/26 15:15:05;;;;;;;21.25;3.22;;;;;;;;;;5099655;28;20462;-75
2023/12/26 15:17:31;;;;;;;20.48;3.38;;;;;;;;;;5113777;28;20034;-76
2023/12/26 15:19:57;;;;;;;18.05;2.60;;;;;;;;;;5109983;28;20032;-75
2023/12/26 15:22:23;;;;;;;31.52;3.55;;;;;;;;;;5098573;28;20035;-75
2023/12/26 15:24:49;;;;;;;23.63;2.88;;;;;;;;;;5105574;28;20023;-74
2023/12/26 15:27:15;;;;;;;20.02;2.45;;;;;;;;;;5109179;28;20028;-77
2023/12/26 15:29:41;;;;;;;25.15;2.72;;;;;;;;;;5114301;28;20445;-77
2023/12/26 15:32:09;;;;;;;17.98;2.90;;;;;;;;;;5110472;28;20031;-76
2023/12/26 15:34:36;;;;;;;26.92;3.97;;;;;;;;;;5120427;28;20024;-75
2023/12/26 15:37:02;;;;;;;17.08;3.20;;;;;;;;;;5100575;28;20027;-75
2023/12/26 15:39:29;;;;;;;22.08;3.30;;;;;;;;;;5096908;28;20028;-78
2023/12/26 15:41:55;;;;;;;26.98;2.92;;;;;;;;;;5103233;28;20099;-73
2023/12/26 15:44:21;;;;;;;18.83;2.25;;;;;;;;;;5105686;28;20066;-75
2023/12/26 15:46:47;;;;;;;20.98;2.88;;;;;;;;;;5115466;28;20168;-75
2023/12/26 15:49:13;;;;;;;23.90;3.65;;;;;;;;;;5112091;28;20050;-75
2023/12/26 15:51:41;;;;;;;18.50;3.20;;;;;;;;;;5111832;28;20031;-76
2023/12/26 15:54:07;;;;;;;28.23;3.53;;;;;;;;;;5111685;28;20479;-75
2023/12/26 15:56:33;;;;;;;17.50;2.38;;;;;;;;;;5110677;28;20027;-75
2023/12/26 15:58:59;;;;;;;18.80;2.65;;;;;;;;;;5111730;28;20114;-74
2023/12/26 16:01:25;;;;;;;21.58;2.90;;;;;;;;;;5111723;28;20031;-75
2023/12/26 16:03:53;;;;;;;16.55;2.55;;;;;;;;;;5112581;28;20515;-75
2023/12/26 16:06:24;;;;;;;24.50;2.55;;;;;;;;;;5112171;28;20021;-76
2023/12/26 16:08:50;;;;;;;17.15;2.85;;;;;;;;;;5112531;28;20478;-75
2023/12/26 16:11:16;;;;;;;18.75;2.95;;;;;;;;;;5111366;28;20027;-76
2023/12/26 16:13:42;;;;;;;19.98;3.45;;;;;;;;;;5111857;28;20020;-75
2023/12/26 16:16:08;;;;;;;21.20;2.85;;;;;;;;;;5111981;28;20020;-74
2023/12/26 16:18:34;;;;;;;23.70;4.32;;;;;;;;;;5117386;28;20023;-76
2023/12/26 16:21:04;;;;;;;21.40;3.65;;;;;;;;;;5114994;28;20062;-75
2023/12/26 16:23:30;;;;;;;23.33;3.42;;;;;;;;;;5111834;28;20068;-76
2023/12/26 16:25:56;;;;;;;15.52;3.15;;;;;;;;;;5113279;28;20023;-76
2023/12/26 16:28:22;;;;;;;14.82;3.63;;;;;;;;;;5113529;28;20020;-76
2023/12/26 16:30:48;;;;;;;15.32;2.55;;;;;;;;;;5112261;28;20490;-77
2023/12/26 16:33:14;;;;;;;15.45;2.20;;;;;;;;;;5112101;28;20494;-76
2023/12/26 16:35:41;;;;;;;18.15;2.63;;;;;;;;;;5112889;28;20077;-77
2023/12/26 16:38:07;;;;;;;17.85;2.00;;;;;;;;;;5115346;28;20020;-77
2023/12/26 16:40:33;;;;;;;12.90;2.17;;;;;;;;;;5112987;28;20028;-75
2023/12/26 16:42:59;;;;;;;21.80;2.92;;;;;;;;;;5113652;28;20454;-75
2023/12/26 16:45:25;;;;;;;15.50;2.17;;;;;;;;;;5116659;28;20062;-75
2023/12/26 16:47:51;;;;;;;15.50;2.72;;;;;;;;;;5115851;28;20024;-75
2023/12/26 16:50:17;;;;;;;9.68;2.78;;;;;;;;;;5116321;28;20031;-77
2023/12/26 16:52:44;;;;;;;19.60;2.70;;;;;;;;;;5116753;28;20028;-75
2023/12/26 16:55:10;;;;;;;13.45;2.28;;;;;;;;;;5115758;28;20107;-75
2023/12/26 16:57:37;;;;;;;11.30;2.25;;;;;;;;;;5115380;28;20396;-75
2023/12/26 17:00:05;;;;;;;20.30;2.50;;;;;;;;;;5115458;28;20031;-75
2023/12/26 17:02:32;;;;;;;15.38;3.30;;;;;;;;;;5115306;28;20095;-76
2023/12/26 17:04:58;;;;;;;10.50;2.78;;;;;;;;;;5118674;28;20107;-76
2023/12/26 17:07:24;;;;;;;17.50;2.67;;;;;;;;;;5098238;28;20034;-78
2023/12/26 17:09:50;;;;;;;11.98;2.13;;;;;;;;;;5115926;28;20106;-76
2023/12/26 17:12:17;;;;;;;17.77;2.67;;;;;;;;;;5116561;28;20056;-76
2023/12/26 17:14:43;;;;;;;17.17;2.78;;;;;;;;;;5116136;28;20502;-76
2023/12/26 17:17:09;;;;;;;22.30;2.53;;;;;;;;;;5115051;28;20035;-76
2023/12/26 17:19:35;;;;;;;19.02;2.83;;;;;;;;;;5115416;28;20387;-76